createdAt,value
2017-12-02T00:01:09.796Z,44.10
2017-12-02T00:03:37.258Z,45.07
2017-12-02T00:06:05.506Z,40.57
2017-12-02T00:08:33.088Z,54.60
2017-12-02T00:11:00.563Z,48.57
2017-12-02T00:13:28.800Z,50.23
2017-12-02T00:15:56.275Z,52.10
2017-12-02T00:18:23.834Z,63.20
2017-12-02T00:20:51.392Z,47.27
2017-12-02T00:23:18.859Z,55.47
2017-12-02T00:25:47.129Z,50.93
2017-12-02T00:28:14.602Z,48.17
2017-12-02T00:30:42.850Z,57.47
2017-12-02T00:33:10.311Z,46.97
2017-12-02T00:35:37.787Z,47.67
2017-12-02T00:38:06.034Z,53.80
2017-12-02T00:40:33.501Z,61.60
2017-12-02T00:43:02.502Z,56.63
2017-12-02T00:45:29.995Z,53.13
2017-12-02T00:47:57.473Z,54.63
2017-12-02T00:50:24.942Z,48.20
2017-12-02T00:52:52.423Z,52.17
2017-12-02T00:55:19.891Z,53.03
2017-12-02T00:57:47.368Z,50.60
2017-12-02T01:00:14.911Z,47.03
2017-12-02T01:02:42.471Z,54.90
2017-12-02T01:05:09.936Z,56.23
2017-12-02T01:07:37.420Z,48.47
2017-12-02T01:10:05.688Z,41.17
2017-12-02T01:12:33.931Z,44.17
2017-12-02T01:15:01.504Z,38.30
2017-12-02T01:17:28.992Z,41.63
2017-12-02T01:19:56.507Z,44.83
2017-12-02T01:22:24.076Z,42.40
2017-12-02T01:24:51.547Z,39.30
2017-12-02T01:27:19.053Z,43.57
2017-12-02T01:29:46.559Z,41.90
2017-12-02T01:32:14.044Z,44.23
2017-12-02T01:34:42.292Z,39.73
2017-12-02T01:37:09.779Z,36.90
2017-12-02T01:39:38.119Z,41.80
2017-12-02T01:42:05.608Z,39.60
2017-12-02T01:44:33.843Z,38.00
2017-12-02T01:47:01.411Z,37.87
2017-12-02T01:49:28.880Z,36.47
2017-12-02T01:51:56.443Z,40.70
2017-12-02T01:54:23.908Z,32.93
2017-12-02T01:56:51.415Z,39.77
2017-12-02T01:59:18.915Z,39.20
2017-12-02T02:01:46.392Z,32.07
2017-12-02T02:04:14.638Z,36.60
2017-12-02T02:06:42.119Z,31.07
2017-12-02T02:09:09.600Z,32.50
2017-12-02T02:11:37.832Z,31.57
2017-12-02T02:14:05.325Z,37.30
2017-12-02T02:16:33.560Z,33.33
2017-12-02T02:19:01.043Z,32.27
2017-12-02T02:21:28.579Z,31.53
2017-12-02T02:23:56.060Z,35.07
2017-12-02T02:26:23.514Z,30.60
2017-12-02T02:28:51.003Z,31.00
2017-12-02T02:31:19.251Z,38.53
2017-12-02T02:33:46.729Z,36.60
2017-12-02T02:36:14.959Z,34.03
2017-12-02T02:38:42.539Z,38.70
2017-12-02T02:41:10.009Z,33.33
2017-12-02T02:43:37.483Z,39.30
2017-12-02T02:46:05.744Z,32.30
2017-12-02T02:48:33.221Z,31.77
2017-12-02T02:51:01.460Z,40.40
2017-12-02T02:53:29.028Z,38.83
2017-12-02T02:55:56.588Z,39.37
2017-12-02T02:58:24.140Z,35.77
2017-12-02T03:00:51.706Z,31.60
2017-12-02T03:03:19.188Z,34.03
2017-12-02T03:05:47.455Z,32.30
2017-12-02T03:08:15.007Z,33.60
2017-12-02T03:10:42.483Z,38.33
2017-12-02T03:13:10.739Z,33.77
2017-12-02T03:15:38.299Z,34.47
2017-12-02T03:18:06.535Z,43.27
2017-12-02T03:20:34.015Z,33.23
2017-12-02T03:23:01.487Z,36.07
2017-12-02T03:25:28.964Z,34.60
2017-12-02T03:27:57.223Z,39.60
2017-12-02T03:30:24.708Z,40.37
2017-12-02T03:32:52.967Z,31.83
2017-12-02T03:35:20.528Z,34.73
2017-12-02T03:37:49.499Z,38.30
2017-12-02T03:40:17.075Z,41.30
2017-12-02T03:42:44.634Z,40.23
2017-12-02T03:45:12.201Z,40.23
2017-12-02T03:47:39.675Z,38.93
2017-12-02T03:50:07.934Z,34.23
2017-12-02T03:52:36.214Z,32.73
2017-12-02T03:55:03.704Z,32.43
2017-12-02T03:57:31.924Z,34.53
2017-12-02T03:59:59.407Z,29.70
2017-12-02T04:02:27.675Z,29.83
2017-12-02T04:04:55.152Z,34.43
2017-12-02T04:07:23.393Z,36.70
2017-12-02T04:09:50.867Z,34.60
2017-12-02T04:12:18.428Z,36.03
2017-12-02T04:14:45.910Z,41.40
2017-12-02T04:17:14.147Z,34.23
2017-12-02T04:19:41.618Z,32.27
2017-12-02T04:22:09.350Z,41.00
2017-12-02T04:24:36.831Z,39.53
2017-12-02T04:27:04.304Z,36.20
2017-12-02T04:29:31.762Z,36.53
2017-12-02T04:31:59.239Z,38.87
2017-12-02T04:34:27.474Z,36.83
2017-12-02T04:36:54.955Z,43.37
2017-12-02T04:39:22.426Z,40.27
2017-12-02T04:41:50.672Z,34.10
2017-12-02T04:44:18.135Z,33.43
2017-12-02T04:46:45.614Z,36.10
2017-12-02T04:49:13.088Z,35.27
2017-12-02T04:51:41.332Z,35.00
2017-12-02T04:54:08.804Z,37.23
2017-12-02T04:56:36.284Z,36.17
2017-12-02T04:59:04.518Z,39.70
2017-12-02T05:01:32.012Z,42.30
2017-12-02T05:04:00.235Z,34.13
2017-12-02T05:06:27.715Z,38.97
2017-12-02T05:08:55.188Z,35.90
2017-12-02T05:11:22.647Z,39.63
2017-12-02T05:13:50.121Z,33.87
2017-12-02T05:16:18.362Z,35.43
2017-12-02T05:18:45.830Z,40.33
2017-12-02T05:21:13.318Z,38.80
2017-12-02T05:23:41.547Z,40.13
2017-12-02T05:26:09.042Z,38.40
2017-12-02T05:28:37.266Z,33.57
2017-12-02T05:31:04.755Z,39.93
2017-12-02T05:33:32.215Z,39.80
2017-12-02T05:35:59.690Z,37.83
2017-12-02T05:38:27.936Z,35.20
2017-12-02T05:40:55.415Z,36.27
2017-12-02T05:43:22.882Z,30.70
2017-12-02T05:45:50.344Z,34.20
2017-12-02T05:48:18.586Z,35.43
2017-12-02T05:50:46.050Z,36.63
2017-12-02T05:53:13.555Z,33.73
2017-12-02T05:55:41.021Z,47.10
2017-12-02T05:58:08.500Z,43.50
2017-12-02T06:00:35.972Z,49.53
2017-12-02T06:03:03.452Z,40.33
2017-12-02T06:05:30.928Z,50.93
2017-12-02T06:07:59.167Z,43.40
2017-12-02T06:10:26.644Z,49.53
2017-12-02T06:12:54.122Z,62.53
2017-12-02T06:15:22.357Z,57.83
2017-12-02T06:17:49.832Z,66.03
2017-12-02T06:20:17.394Z,69.10
2017-12-02T06:22:44.871Z,68.17
2017-12-02T06:25:13.133Z,79.63
2017-12-02T06:27:40.615Z,69.23
2017-12-02T06:30:08.945Z,94.97
2017-12-02T06:32:36.419Z,83.07
2017-12-02T06:35:03.901Z,78.80
2017-12-02T06:37:31.381Z,116.33
2017-12-02T06:39:58.846Z,92.63
2017-12-02T06:42:26.319Z,85.17
2017-12-02T06:44:53.791Z,94.77
2017-12-02T06:47:21.298Z,110.33
2017-12-02T06:49:49.559Z,93.20
2017-12-02T06:52:17.044Z,84.60
2017-12-02T06:54:44.511Z,100.30
2017-12-02T06:57:12.032Z,86.67
2017-12-02T06:59:39.588Z,79.97
2017-12-02T07:02:07.056Z,82.33
2017-12-02T07:04:35.298Z,80.90
2017-12-02T07:07:02.780Z,86.13
2017-12-02T07:09:30.250Z,93.30
2017-12-02T07:11:58.493Z,82.40
2017-12-02T07:14:25.979Z,79.63
2017-12-02T07:16:53.463Z,91.03
2017-12-02T07:19:21.703Z,90.10
2017-12-02T07:21:49.184Z,91.33
2017-12-02T07:24:17.429Z,85.77
2017-12-02T07:26:44.899Z,95.67
2017-12-02T07:29:12.380Z,84.90
2017-12-02T07:31:40.651Z,78.50
2017-12-02T07:34:08.896Z,80.87
2017-12-02T07:36:36.358Z,77.13
2017-12-02T07:39:03.854Z,86.43
2017-12-02T07:41:32.093Z,94.17
2017-12-02T07:43:59.577Z,80.77
2017-12-02T07:46:27.812Z,63.40
2017-12-02T07:48:55.292Z,75.93
2017-12-02T07:51:22.759Z,73.33
2017-12-02T07:53:50.231Z,74.03
2017-12-02T07:56:18.473Z,74.83
2017-12-02T07:58:46.046Z,61.73
2017-12-02T08:01:13.519Z,58.10
2017-12-02T08:03:41.005Z,58.60
2017-12-02T08:06:08.468Z,68.97
2017-12-02T08:08:35.956Z,64.40
2017-12-02T08:11:03.438Z,78.57
2017-12-02T08:13:30.915Z,62.77
2017-12-02T08:15:59.193Z,63.67
2017-12-02T08:18:27.456Z,76.57
2017-12-02T08:20:54.928Z,84.43
2017-12-02T08:23:23.157Z,74.57
2017-12-02T08:25:50.641Z,67.27
2017-12-02T08:28:18.119Z,57.07
2017-12-02T08:30:46.368Z,60.73
2017-12-02T08:33:13.844Z,64.40
2017-12-02T08:35:41.396Z,60.87
2017-12-02T08:38:08.872Z,58.63
2017-12-02T08:40:37.127Z,67.40
2017-12-02T08:43:04.604Z,65.43
2017-12-02T08:45:32.868Z,71.20
2017-12-02T08:48:00.326Z,79.43
2017-12-02T08:50:27.798Z,63.80
2017-12-02T08:52:56.064Z,67.90
2017-12-02T08:55:24.311Z,62.67
2017-12-02T08:57:51.797Z,55.83
2017-12-02T09:00:19.267Z,60.23
2017-12-02T09:02:47.503Z,51.83
2017-12-02T09:05:14.983Z,58.77
2017-12-02T09:07:42.447Z,55.20
2017-12-02T09:10:09.940Z,54.53
2017-12-02T09:12:37.402Z,58.77
2017-12-02T09:15:04.909Z,54.60
2017-12-02T09:17:32.415Z,45.60
2017-12-02T09:19:59.879Z,47.70
2017-12-02T09:22:27.398Z,48.43
2017-12-02T09:24:54.960Z,45.77
2017-12-02T09:27:22.438Z,45.23
2017-12-02T09:29:50.694Z,54.87
2017-12-02T09:32:18.250Z,55.20
2017-12-02T09:34:45.728Z,40.83
2017-12-02T09:37:13.978Z,38.63
2017-12-02T09:39:41.452Z,39.00
2017-12-02T09:42:09.004Z,42.23
2017-12-02T09:44:36.569Z,45.20
2017-12-02T09:47:04.043Z,40.13
2017-12-02T09:49:32.286Z,43.27
2017-12-02T09:51:59.767Z,35.33
2017-12-02T09:54:27.238Z,42.67
2017-12-02T09:56:55.603Z,37.73
2017-12-02T09:59:23.071Z,44.90
2017-12-02T10:01:51.335Z,34.43
2017-12-02T10:04:18.810Z,38.60
2017-12-02T10:06:47.050Z,42.53
2017-12-02T10:09:14.524Z,36.43
2017-12-02T10:11:42.083Z,31.27
2017-12-02T10:14:09.640Z,42.87
2017-12-02T10:16:37.116Z,39.50
2017-12-02T10:19:05.387Z,34.73
2017-12-02T10:21:32.933Z,31.93
2017-12-02T10:24:00.495Z,37.97
2017-12-02T10:26:27.965Z,39.57
2017-12-02T10:28:55.439Z,39.13
2017-12-02T10:31:23.688Z,30.93
2017-12-02T10:33:51.167Z,30.97
2017-12-02T10:36:19.408Z,35.07
2017-12-02T10:38:46.983Z,40.87
2017-12-02T10:41:15.304Z,35.57
2017-12-02T10:43:42.803Z,30.60
2017-12-02T10:46:10.271Z,34.50
2017-12-02T10:48:37.751Z,25.00
2017-12-02T10:51:05.987Z,33.90
2017-12-02T10:53:33.475Z,27.53
2017-12-02T10:56:01.040Z,29.87
2017-12-02T10:58:28.515Z,26.90
2017-12-02T11:00:56.751Z,31.50
2017-12-02T11:03:24.227Z,33.90
2017-12-02T11:05:51.716Z,35.33
2017-12-02T11:08:19.224Z,28.67
2017-12-02T11:10:46.702Z,29.40
2017-12-02T11:13:14.184Z,30.17
2017-12-02T11:15:42.428Z,29.67
2017-12-02T11:18:09.901Z,29.70
2017-12-02T11:20:37.370Z,27.17
2017-12-02T11:23:05.645Z,29.33
2017-12-02T11:25:33.891Z,25.33
2017-12-02T11:28:01.364Z,27.10
2017-12-02T11:30:28.943Z,30.10
2017-12-02T11:32:57.188Z,26.73
2017-12-02T11:35:24.664Z,31.10
2017-12-02T11:37:52.127Z,27.30
2017-12-02T11:40:19.611Z,25.70
2017-12-02T11:42:47.075Z,30.07
2017-12-02T11:45:14.572Z,21.97
2017-12-02T11:47:42.036Z,23.80
2017-12-02T11:50:09.506Z,24.77
2017-12-02T11:52:36.978Z,24.80
2017-12-02T11:55:05.304Z,23.77
2017-12-02T11:57:33.604Z,23.90
2017-12-02T12:00:01.086Z,25.60
2017-12-02T12:02:28.580Z,23.03
2017-12-02T12:04:56.054Z,24.10
2017-12-02T12:07:23.533Z,24.37
2017-12-02T12:09:51.026Z,21.90
2017-12-02T12:12:18.555Z,19.67
2017-12-02T12:14:46.020Z,18.37
2017-12-02T12:17:13.511Z,23.63
2017-12-02T12:19:41.762Z,20.73
2017-12-02T12:22:09.234Z,21.50
2017-12-02T12:24:37.471Z,21.10
2017-12-02T12:27:04.972Z,24.57
2017-12-02T12:29:33.203Z,23.77
2017-12-02T12:32:00.682Z,23.70
2017-12-02T12:34:28.160Z,22.30
2017-12-02T12:36:55.652Z,22.47
2017-12-02T12:39:23.131Z,22.73
2017-12-02T12:41:50.610Z,23.10
2017-12-02T12:44:18.075Z,26.57
2017-12-02T12:46:45.550Z,22.93
2017-12-02T12:49:13.054Z,24.70
2017-12-02T12:51:40.590Z,23.80
2017-12-02T12:54:08.380Z,24.23
2017-12-02T12:56:35.865Z,28.40
2017-12-02T12:59:03.353Z,23.37
2017-12-02T13:01:30.857Z,23.40
2017-12-02T13:03:58.323Z,22.30
2017-12-02T13:06:25.808Z,23.37
2017-12-02T13:08:53.270Z,20.53
2017-12-02T13:11:20.792Z,21.70
2017-12-02T13:13:48.260Z,22.87
2017-12-02T13:16:16.129Z,24.00
2017-12-02T13:18:44.505Z,23.70
2017-12-02T13:21:11.988Z,22.40
2017-12-02T13:23:40.672Z,21.70
2017-12-02T13:26:08.156Z,24.00
2017-12-02T13:28:36.394Z,19.93
2017-12-02T13:31:03.900Z,24.50
2017-12-02T13:33:32.138Z,20.60
2017-12-02T13:35:59.618Z,24.03
2017-12-02T13:38:27.168Z,22.00
2017-12-02T13:40:54.672Z,19.10
2017-12-02T13:43:22.147Z,19.47
2017-12-02T13:45:49.631Z,22.83
2017-12-02T13:48:17.123Z,22.23
2017-12-02T13:50:45.363Z,23.93
2017-12-02T13:53:12.852Z,21.90
2017-12-02T13:55:41.101Z,24.77
2017-12-02T13:58:08.585Z,20.90
2017-12-02T14:00:36.052Z,25.97
2017-12-02T14:03:04.305Z,18.37
2017-12-02T14:05:31.776Z,21.00
2017-12-02T14:07:59.260Z,22.10
2017-12-02T14:10:26.747Z,17.70
2017-12-02T14:12:54.230Z,24.67
2017-12-02T14:15:21.713Z,24.80
2017-12-02T14:17:49.195Z,23.40
2017-12-02T14:20:16.665Z,23.33
2017-12-02T14:22:44.142Z,26.67
2017-12-02T14:25:11.618Z,21.80
2017-12-02T14:27:39.104Z,21.90
2017-12-02T14:30:06.572Z,20.83
2017-12-02T14:32:35.199Z,23.07
2017-12-02T14:35:02.662Z,22.77
2017-12-02T14:37:30.136Z,24.87
2017-12-02T14:39:57.619Z,25.50
2017-12-02T14:42:25.088Z,21.20
2017-12-02T14:44:53.330Z,20.20
2017-12-02T14:47:20.799Z,19.93
2017-12-02T14:49:48.283Z,18.63
2017-12-02T14:52:16.519Z,20.77
2017-12-02T14:54:43.992Z,18.73
2017-12-02T14:57:11.463Z,22.27
2017-12-02T14:59:38.938Z,20.57
2017-12-02T15:02:06.417Z,19.13
2017-12-02T15:04:33.894Z,20.67
2017-12-02T15:07:01.367Z,18.07
2017-12-02T15:09:28.859Z,15.90
2017-12-02T15:11:57.094Z,17.37
2017-12-02T15:14:24.576Z,18.77
2017-12-02T15:16:52.049Z,16.47
2017-12-02T15:19:19.536Z,13.23
2017-12-02T15:21:47.038Z,17.60
2017-12-02T15:24:14.536Z,21.43
2017-12-02T15:26:42.837Z,16.23
2017-12-02T15:29:10.311Z,16.70
2017-12-02T15:31:37.790Z,17.37
2017-12-02T15:34:05.268Z,16.20
2017-12-02T15:36:32.738Z,14.27
2017-12-02T15:39:01.037Z,17.87
2017-12-02T15:41:28.480Z,13.13
2017-12-02T15:43:56.740Z,12.23
2017-12-02T15:46:24.207Z,13.90
2017-12-02T15:48:52.447Z,12.13
2017-12-02T15:51:19.927Z,15.83
2017-12-02T15:53:47.407Z,15.47
2017-12-02T15:56:15.659Z,14.60
2017-12-02T15:58:43.131Z,16.73
2017-12-02T16:01:11.384Z,14.77
2017-12-02T16:03:38.866Z,12.30
2017-12-02T16:06:06.322Z,12.40
2017-12-02T16:08:34.554Z,14.13
2017-12-02T16:11:02.035Z,16.60
2017-12-02T16:13:29.507Z,13.57
2017-12-02T16:15:56.992Z,14.70
2017-12-02T16:18:25.224Z,15.13
2017-12-02T16:20:52.722Z,14.60
2017-12-02T16:23:20.959Z,15.53
2017-12-02T16:25:48.479Z,17.63
2017-12-02T16:28:15.955Z,14.63
2017-12-02T16:30:43.439Z,13.67
2017-12-02T16:33:10.905Z,15.87
2017-12-02T16:35:38.396Z,15.27
2017-12-02T16:38:06.649Z,15.60
2017-12-02T16:40:34.122Z,14.90
2017-12-02T16:43:02.361Z,12.80
2017-12-02T16:45:29.834Z,14.07
2017-12-02T16:47:57.303Z,13.13
2017-12-02T16:50:24.803Z,13.43
2017-12-02T16:52:52.345Z,14.90
2017-12-02T16:55:19.827Z,14.37
2017-12-02T16:57:47.295Z,13.40
2017-12-02T17:00:14.763Z,10.80
2017-12-02T17:02:42.235Z,11.63
2017-12-02T17:05:10.273Z,11.60
2017-12-02T17:07:38.139Z,7.87
2017-12-02T17:10:05.594Z,9.23
2017-12-02T17:12:33.077Z,8.20
2017-12-02T17:15:00.719Z,8.20
2017-12-02T17:17:28.219Z,11.77
2017-12-02T17:19:55.693Z,10.00
2017-12-02T17:22:23.943Z,9.90
2017-12-02T17:24:51.407Z,14.27
2017-12-02T17:27:18.898Z,10.30
2017-12-02T17:29:47.135Z,13.10
2017-12-02T17:32:14.620Z,12.30
2017-12-02T17:34:42.082Z,15.73
2017-12-02T17:37:10.329Z,11.53
2017-12-02T17:39:37.795Z,11.07
2017-12-02T17:42:05.274Z,10.47
2017-12-02T17:44:32.735Z,11.60
2017-12-02T17:47:00.996Z,13.70
2017-12-02T17:49:28.454Z,14.83
2017-12-02T17:51:55.922Z,12.40
2017-12-02T17:54:24.158Z,12.73
2017-12-02T17:56:51.628Z,14.37
2017-12-02T17:59:20.054Z,13.07
2017-12-02T18:01:47.534Z,12.40
2017-12-02T18:04:15.011Z,10.33
2017-12-02T18:06:42.471Z,12.87
2017-12-02T18:09:09.942Z,12.23
2017-12-02T18:11:37.410Z,14.50
2017-12-02T18:14:04.888Z,15.23
2017-12-02T18:16:33.115Z,15.37
2017-12-02T18:19:00.597Z,13.63
2017-12-02T18:21:28.059Z,13.37
2017-12-02T18:23:55.543Z,13.80
2017-12-02T18:26:23.784Z,12.87
2017-12-02T18:28:51.271Z,12.47
2017-12-02T18:31:19.511Z,14.37
2017-12-02T18:33:47.007Z,14.13
2017-12-02T18:36:15.247Z,13.47
2017-12-02T18:38:42.718Z,14.37
2017-12-02T18:41:10.191Z,10.03
2017-12-02T18:43:38.458Z,14.37
2017-12-02T18:46:05.928Z,13.60
2017-12-02T18:48:33.390Z,15.33
2017-12-02T18:51:01.636Z,14.83
2017-12-02T18:53:29.123Z,12.03
2017-12-02T18:55:56.586Z,16.00
2017-12-02T18:58:24.826Z,14.83
2017-12-02T19:00:52.305Z,15.50
2017-12-02T19:03:19.845Z,15.20
2017-12-02T19:05:47.292Z,15.30
2017-12-02T19:08:14.791Z,18.73
2017-12-02T19:10:43.035Z,18.00
2017-12-02T19:13:10.524Z,15.03
2017-12-02T19:15:38.006Z,18.40
2017-12-02T19:18:05.466Z,15.23
2017-12-02T19:20:32.946Z,12.43
2017-12-02T19:23:00.413Z,11.80
2017-12-02T19:25:27.899Z,14.23
2017-12-02T19:27:55.358Z,12.97
2017-12-02T19:30:22.845Z,14.83
2017-12-02T19:32:51.096Z,16.33
2017-12-02T19:35:18.735Z,12.03
2017-12-02T19:37:46.219Z,13.33
2017-12-02T19:40:13.694Z,11.73
2017-12-02T19:42:41.175Z,12.43
2017-12-02T19:45:08.663Z,13.60
2017-12-02T19:47:36.126Z,13.63
2017-12-02T19:50:03.604Z,13.17
2017-12-02T19:52:31.067Z,13.60
2017-12-02T19:54:58.552Z,13.60
2017-12-02T19:57:26.808Z,10.93
2017-12-02T19:59:54.289Z,15.80
2017-12-02T20:02:22.517Z,15.00
2017-12-02T20:04:49.987Z,11.97
2017-12-02T20:07:17.454Z,12.33
2017-12-02T20:09:45.711Z,11.80
2017-12-02T20:12:13.179Z,12.40
2017-12-02T20:14:40.642Z,13.23
2017-12-02T20:17:08.119Z,14.57
2017-12-02T20:19:36.347Z,14.80
2017-12-02T20:22:03.831Z,18.30
2017-12-02T20:24:31.298Z,16.93
2017-12-02T20:26:58.782Z,14.67
2017-12-02T20:29:26.254Z,11.03
2017-12-02T20:31:53.729Z,14.83
2017-12-02T20:34:21.184Z,11.83
2017-12-02T20:36:48.664Z,16.73
2017-12-02T20:39:16.167Z,13.13
2017-12-02T20:41:43.648Z,13.13
2017-12-02T20:44:11.121Z,19.40
2017-12-02T20:46:38.591Z,14.83
2017-12-02T20:49:06.074Z,12.90
2017-12-02T20:51:33.536Z,14.50
2017-12-02T20:54:01.000Z,14.00
2017-12-02T20:56:29.238Z,15.87
2017-12-02T20:58:56.717Z,13.90
2017-12-02T21:01:24.197Z,15.97
2017-12-02T21:03:52.414Z,12.93
2017-12-02T21:06:19.888Z,12.23
2017-12-02T21:08:47.350Z,16.70
2017-12-02T21:11:14.832Z,12.43
2017-12-02T21:13:42.304Z,14.50
2017-12-02T21:16:10.543Z,13.73
2017-12-02T21:18:38.016Z,14.60
2017-12-02T21:21:05.556Z,14.27
2017-12-02T21:23:33.256Z,16.87
2017-12-02T21:26:00.782Z,15.20
2017-12-02T21:28:28.258Z,17.23
2017-12-02T21:30:55.723Z,16.03
2017-12-02T21:33:23.207Z,15.63
2017-12-02T21:35:50.678Z,17.57
2017-12-02T21:38:18.156Z,14.90
2017-12-02T21:40:45.631Z,19.40
2017-12-02T21:43:13.881Z,14.83
2017-12-02T21:45:41.349Z,18.90
2017-12-02T21:48:08.831Z,17.27
2017-12-02T21:50:36.294Z,15.60
2017-12-02T21:53:03.859Z,18.13
2017-12-02T21:55:31.330Z,15.53
2017-12-02T21:57:59.575Z,15.90
2017-12-02T22:00:27.044Z,14.70
2017-12-02T22:02:54.519Z,16.70
2017-12-02T22:05:23.151Z,16.73
2017-12-02T22:07:50.629Z,17.63
2017-12-02T22:10:18.104Z,17.50
2017-12-02T22:12:45.582Z,15.70
2017-12-02T22:15:13.824Z,17.63
2017-12-02T22:17:41.303Z,17.40
2017-12-02T22:20:08.784Z,21.70
2017-12-02T22:22:37.020Z,22.33
2017-12-02T22:25:04.509Z,21.23
2017-12-02T22:27:32.755Z,19.77
2017-12-02T22:30:00.231Z,20.77
2017-12-02T22:35:22.072Z,27.10
2017-12-02T22:37:49.563Z,26.60
2017-12-02T22:40:17.812Z,26.50
2017-12-02T22:42:45.295Z,20.03
2017-12-02T22:45:13.531Z,27.33
2017-12-02T22:47:41.007Z,31.10
2017-12-02T22:50:08.491Z,23.63
2017-12-02T22:52:35.968Z,25.70
2017-12-02T22:55:03.447Z,23.17
2017-12-02T22:57:30.918Z,22.77
2017-12-02T22:59:58.385Z,24.53
2017-12-02T23:02:25.855Z,26.20
2017-12-02T23:04:53.330Z,24.80
2017-12-02T23:07:21.577Z,25.33
2017-12-02T23:09:49.077Z,20.93
2017-12-02T23:12:16.546Z,24.13
2017-12-02T23:14:44.027Z,19.50
2017-12-02T23:17:11.496Z,23.40
2017-12-02T23:19:38.971Z,21.97
2017-12-02T23:22:06.442Z,24.00
2017-12-02T23:24:34.691Z,27.30
2017-12-02T23:27:02.176Z,26.10
2017-12-02T23:29:29.657Z,29.23
2017-12-02T23:31:57.887Z,20.97
2017-12-02T23:34:25.375Z,23.27
2017-12-02T23:36:53.616Z,17.77
2017-12-02T23:39:21.112Z,20.57
2017-12-02T23:41:49.357Z,22.33
2017-12-02T23:44:16.835Z,20.73
2017-12-02T23:46:44.318Z,22.17
2017-12-02T23:49:12.760Z,19.50
2017-12-02T23:51:40.235Z,19.70
2017-12-02T23:54:08.465Z,22.17
2017-12-02T23:56:35.955Z,22.03
2017-12-02T23:59:03.423Z,21.77
